Time;durP1;ratioP1;P1;durP2;ratioP2;P2;SDS_P1;SDS_P2;PMS_P1;PMS_P2;Temp;Humidity;BMP_temperature;BMP_pressure;BME280_temperature;BME280_humidity;BME280_pressure;Samples;Min_cycle;Max_cycle;Signal;HPM_P1;HPM_P2
2021/03/26 00:02:21;;;;;;;;;;;;;;;-2.85;100.00;99653.42;1784696;80;20131;-71
2021/03/26 00:04:50;;;;;;;;;;;;;;;-2.67;100.00;99654.58;1784870;80;20155;-71
2021/03/26 00:07:19;;;;;;;;;;;;;;;-2.55;100.00;99652.91;1784694;80;20239;-71
2021/03/26 00:09:48;;;;;;;;;;;;;;;-2.42;100.00;99655.36;1784789;80;20127;-72
2021/03/26 00:12:16;;;;;;;;;;;;;;;-2.10;100.00;99656.78;1784848;80;21203;-72
2021/03/26 00:14:45;;;;;;;;;;;;;;;-2.11;100.00;99663.82;1784624;80;20135;-72
2021/03/26 00:17:12;;;;;;;;;;;;;;;-2.02;100.00;99661.50;1770891;80;20164;-71
2021/03/26 00:19:42;;;;;;;;;;;;;;;-1.98;100.00;99657.55;1769952;81;20136;-71
2021/03/26 00:22:10;;;;;;;;;;;;;;;-1.93;100.00;99657.05;1770022;81;20163;-71
2021/03/26 00:24:37;;;;;;;;;;;;;;;-1.95;100.00;99663.78;1770049;81;21335;-72
2021/03/26 00:27:06;;;;;;;;;;;;;;;-1.98;100.00;99656.73;1769918;81;20156;-71
2021/03/26 00:29:35;;;;;;;;;;;;;;;-1.98;100.00;99656.23;1769903;81;20160;-71
2021/03/26 00:32:05;;;;;;;;;;;;;;;-2.02;100.00;99661.50;1769997;81;20155;-71
2021/03/26 00:34:34;;;;;;;;;;;;;;;-2.09;100.00;99657.91;1770022;81;20155;-71
2021/03/26 00:37:03;;;;;;;;;;;;;;;-2.10;100.00;99662.84;1770024;81;22310;-71
2021/03/26 00:39:32;;;;;;;;;;;;;;;-2.11;100.00;99656.43;1769935;81;20169;-71
2021/03/26 00:42:01;;;;;;;;;;;;;;;-2.14;100.00;99658.09;1770092;81;20522;-71
2021/03/26 00:44:31;;;;;;;;;;;;;;;-2.17;100.00;99661.88;1769991;81;20159;-71
2021/03/26 00:46:58;;;;;;;;;;;;;;;-2.25;100.00;99664.05;1770008;81;20160;-70
2021/03/26 00:49:28;;;;;;;;;;;;;;;-2.29;100.00;99661.41;1770044;80;22401;-70
2021/03/26 00:51:56;;;;;;;;;;;;;;;-2.41;100.00;99658.30;1758898;81;20212;-71
2021/03/26 00:54:24;;;;;;;;;;;;;;;-2.51;100.00;99659.48;1771906;80;20112;-71
2021/03/26 00:56:51;;;;;;;;;;;;;;;-2.59;100.00;99661.13;1772001;81;20714;-71
2021/03/26 00:59:21;;;;;;;;;;;;;;;-2.57;100.00;99664.08;1771247;81;20246;-71
2021/03/26 01:01:48;;;;;;;;;;;;;;;-2.70;100.00;99660.64;1771894;81;21384;-70
2021/03/26 01:04:19;;;;;;;;;;;;;;;-2.82;100.00;99664.94;1771797;81;20159;-71
2021/03/26 01:06:47;;;;;;;;;;;;;;;-2.72;100.00;99667.40;1771886;81;20514;-72
2021/03/26 01:09:15;;;;;;;;;;;;;;;-2.61;100.00;99670.98;1772021;80;20112;-72
2021/03/26 01:11:47;;;;;;;;;;;;;;;-2.56;100.00;99666.55;1771919;81;20132;-72
2021/03/26 01:14:18;;;;;;;;;;;;;;;-2.46;100.00;99673.77;1770735;81;22220;-71
2021/03/26 01:16:48;;;;;;;;;;;;;;;-2.42;100.00;99679.02;1771647;81;20313;-71
2021/03/26 01:19:18;;;;;;;;;;;;;;;-2.45;100.00;99668.84;1772020;80;20506;-71
2021/03/26 01:21:46;;;;;;;;;;;;;;;-2.46;100.00;99674.27;1772069;81;20242;-71
2021/03/26 01:24:16;;;;;;;;;;;;;;;-2.40;100.00;99673.11;1772140;81;20131;-71
2021/03/26 01:26:46;;;;;;;;;;;;;;;-2.42;100.00;99679.02;1772059;81;21212;-71
2021/03/26 01:29:17;;;;;;;;;;;;;;;-2.48;100.00;99678.86;1767746;81;20271;-71
2021/03/26 01:31:47;;;;;;;;;;;;;;;-2.49;100.00;99676.73;1771599;81;20168;-71
2021/03/26 01:34:15;;;;;;;;;;;;;;;-2.48;100.00;99685.43;1771978;81;20262;-71
2021/03/26 01:36:45;;;;;;;;;;;;;;;-2.47;100.00;99677.39;1770920;81;20493;-71
2021/03/26 01:39:15;;;;;;;;;;;;;;;-2.48;100.00;99679.67;1772159;81;22148;-71
2021/03/26 01:41:47;;;;;;;;;;;;;;;-2.51;100.00;99681.33;1772079;81;20510;-71
2021/03/26 01:44:22;;;;;;;;;;;;;;;-2.54;100.00;99683.48;1772100;81;20240;-71
2021/03/26 01:46:51;;;;;;;;;;;;;;;-2.50;100.00;99686.08;1772115;80;20579;-71
2021/03/26 01:49:23;;;;;;;;;;;;;;;-2.47;100.00;99681.33;1772073;81;20506;-70
2021/03/26 01:51:52;;;;;;;;;;;;;;;-2.38;100.00;99686.06;1771529;81;22129;-71
2021/03/26 01:54:21;;;;;;;;;;;;;;;-2.41;100.00;99689.03;1771944;81;20143;-71
2021/03/26 01:56:53;;;;;;;;;;;;;;;-2.35;100.00;99690.17;1771937;81;20223;-71
2021/03/26 01:59:26;;;;;;;;;;;;;;;-2.34;100.00;99690.52;1771993;80;20633;-71
2021/03/26 02:02:09;;;;;;;;;;;;;;;-2.31;100.00;99690.17;1772057;81;20227;-71
2021/03/26 02:04:57;;;;;;;;;;;;;;;-2.30;100.00;99693.97;1772007;81;21142;-71
2021/03/26 02:07:45;;;;;;;;;;;;;;;-2.23;100.00;99694.09;1771304;81;20219;-70
2021/03/26 02:10:23;;;;;;;;;;;;;;;-2.25;100.00;99703.98;1771717;81;20240;-71
2021/03/26 02:12:57;;;;;;;;;;;;;;;-2.18;100.00;99703.14;1748916;81;20235;-71
2021/03/26 02:15:28;;;;;;;;;;;;;;;-2.17;100.00;99706.09;1771746;81;20247;-71
2021/03/26 02:17:55;;;;;;;;;;;;;;;-2.19;100.00;99698.04;1783412;80;22365;-71
2021/03/26 02:20:34;;;;;;;;;;;;;;;-2.21;100.00;99705.27;1784450;80;20619;-71
2021/03/26 02:23:12;;;;;;;;;;;;;;;-2.27;100.00;99704.14;1784070;80;20155;-71
2021/03/26 02:25:42;;;;;;;;;;;;;;;-2.32;100.00;99699.06;1783368;80;20160;-71
2021/03/26 02:28:12;;;;;;;;;;;;;;;-2.33;100.00;99702.16;1785015;80;20513;-71
2021/03/26 02:30:46;;;;;;;;;;;;;;;-2.28;100.00;99705.14;1783785;80;22127;-71
2021/03/26 02:33:15;;;;;;;;;;;;;;;-2.37;100.00;99709.58;1784689;80;20215;-71
2021/03/26 02:35:47;;;;;;;;;;;;;;;-2.40;100.00;99707.28;1785000;80;20490;-71
2021/03/26 02:38:32;;;;;;;;;;;;;;;-2.43;100.00;99715.48;1784342;80;20194;-71
2021/03/26 02:41:19;;;;;;;;;;;;;;;-2.55;100.00;99712.86;1783448;80;20227;-71
2021/03/26 02:43:56;;;;;;;;;;;;;;;-2.58;100.00;99718.45;1756579;80;21465;-71
2021/03/26 02:46:32;;;;;;;;;;;;;;;-2.56;100.00;99713.86;1784838;80;20128;-71
2021/03/26 02:49:10;;;;;;;;;;;;;;;-2.67;100.00;99718.12;1785012;80;20490;-71
2021/03/26 02:51:42;;;;;;;;;;;;;;;-2.75;100.00;99717.63;1756673;80;20677;-72
2021/03/26 02:54:13;;;;;;;;;;;;;;;-2.77;100.00;99717.46;1784895;80;20120;-71
2021/03/26 02:57:00;;;;;;;;;;;;;;;-2.78;100.00;99719.77;1783773;80;20147;-72
2021/03/26 02:59:50;;;;;;;;;;;;;;;-2.70;100.00;99713.20;1756470;80;20237;-70
2021/03/26 03:02:19;;;;;;;;;;;;;;;-2.67;100.00;99715.02;1784850;80;20159;-70
2021/03/26 03:05:08;;;;;;;;;;;;;;;-2.71;100.00;99715.51;1783510;80;20783;-71
2021/03/26 03:07:39;;;;;;;;;;;;;;;-2.77;100.00;99720.91;1784928;80;20218;-70
2021/03/26 03:10:30;;;;;;;;;;;;;;;-2.81;100.00;99716.98;1761809;80;21220;-72
2021/03/26 03:13:17;;;;;;;;;;;;;;;-2.82;100.00;99720.11;1757257;80;20233;-71
2021/03/26 03:15:56;;;;;;;;;;;;;;;-2.85;100.00;99717.78;1784834;80;20604;-71
2021/03/26 03:18:30;;;;;;;;;;;;;;;-2.81;100.00;99716.98;1784881;80;20175;-72
2021/03/26 03:21:23;;;;;;;;;;;;;;;-2.76;100.00;99719.94;1756458;80;20227;-72
2021/03/26 03:24:10;;;;;;;;;;;;;;;-2.75;100.00;99726.01;1784858;80;21324;-72
2021/03/26 03:26:46;;;;;;;;;;;;;;;-2.82;100.00;99729.77;1783880;80;20139;-71
2021/03/26 03:29:43;;;;;;;;;;;;;;;-2.84;100.00;99723.38;1784920;80;20227;-71
2021/03/26 03:32:24;;;;;;;;;;;;;;;-2.83;100.00;99726.83;1784400;80;20708;-72
2021/03/26 03:35:16;;;;;;;;;;;;;;;-2.80;100.00;99733.87;1784747;80;20238;-71
2021/03/26 03:37:47;;;;;;;;;;;;;;;-2.89;100.00;99726.99;1784852;80;21206;-71
2021/03/26 03:40:19;;;;;;;;;;;;;;;-2.91;100.00;99732.08;1783280;80;20128;-71
2021/03/26 03:42:56;;;;;;;;;;;;;;;-2.98;100.00;99727.14;1784868;80;20276;-71
2021/03/26 03:45:34;;;;;;;;;;;;;;;-2.94;100.00;99731.91;1784861;80;20151;-71
2021/03/26 03:48:06;;;;;;;;;;;;;;;-2.82;100.00;99735.02;1691503;84;20548;-71
2021/03/26 03:50:48;;;;;;;;;;;;;;;-2.76;100.00;99735.70;1691394;85;21365;-72
2021/03/26 03:53:27;;;;;;;;;;;;;;;-2.72;100.00;99732.23;1691366;85;20313;-71
2021/03/26 03:56:21;;;;;;;;;;;;;;;-2.76;100.00;99729.13;1691505;85;20273;-72
2021/03/26 03:58:57;;;;;;;;;;;;;;;-2.82;100.00;99731.08;1691524;85;20269;-71
2021/03/26 04:01:31;;;;;;;;;;;;;;;-2.83;100.00;99723.70;1691479;85;20265;-72
2021/03/26 04:14:54;;;;;;;;;;;;;;;-2.08;100.00;99726.63;1847522;76;20254;-71
2021/03/26 04:17:30;;;;;;;;;;;;;;;-1.89;100.00;99732.48;1858519;77;20193;-71
2021/03/26 04:20:05;;;;;;;;;;;;;;;-1.66;100.00;99736.55;1853768;77;21779;-72
2021/03/26 04:22:39;;;;;;;;;;;;;;;-1.50;100.00;99736.47;1858482;77;20142;-71
2021/03/26 04:25:20;;;;;;;;;;;;;;;-1.59;100.00;99743.59;1858048;77;20119;-71
2021/03/26 04:28:11;;;;;;;;;;;;;;;-1.71;100.00;99741.00;1858504;77;20213;-72
2021/03/26 04:30:53;;;;;;;;;;;;;;;-1.50;100.00;99747.00;1855513;77;20149;-70
2021/03/26 04:33:28;;;;;;;;;;;;;;;-1.27;100.00;99756.30;1856229;77;22193;-71
2021/03/26 04:35:57;;;;;;;;;;;;;;;-0.86;100.00;99753.41;1858497;77;20126;-71
2021/03/26 04:38:29;;;;;;;;;;;;;;;-0.60;100.00;99760.17;1856432;77;20158;-70
2021/03/26 04:41:02;;;;;;;;;;;;;;;-0.41;100.00;99764.97;1858407;77;20596;-71
2021/03/26 04:44:08;;;;;;;;;;;;;;;-0.24;100.00;99761.70;1857946;77;20130;-71
2021/03/26 04:47:02;;;;;;;;;;;;;;;-0.05;100.00;99769.59;1858489;77;21372;-72
2021/03/26 04:49:53;;;;;;;;;;;;;;;0.06;100.00;99772.31;1857048;77;20130;-72
2021/03/26 04:52:25;;;;;;;;;;;;;;;0.15;100.00;99781.29;1825756;77;20493;-72
2021/03/26 04:55:16;;;;;;;;;;;;;;;0.31;100.00;99784.24;1845898;77;20123;-72
2021/03/26 04:58:01;;;;;;;;;;;;;;;0.41;100.00;99789.26;1858512;77;20131;-71
2021/03/26 05:00:34;;;;;;;;;;;;;;;0.54;100.00;99782.85;1855236;77;22275;-71
2021/03/26 05:03:11;;;;;;;;;;;;;;;0.63;100.00;99787.02;1858385;77;20142;-71
2021/03/26 05:05:45;;;;;;;;;;;;;;;0.63;100.00;99790.16;1858547;77;20501;-71
2021/03/26 05:08:31;;;;;;;;;;;;;;;0.76;100.00;99796.11;1857821;77;20130;-71
2021/03/26 05:11:17;;;;;;;;;;;;;;;0.76;100.00;99793.00;1858628;77;20289;-70
2021/03/26 05:13:48;;;;;;;;;;;;;;;0.89;100.00;99795.48;1852744;77;21353;-70
2021/03/26 05:16:31;;;;;;;;;;;;;;;1.00;100.00;99790.52;1846111;77;20166;-70
2021/03/26 05:19:23;;;;;;;;;;;;;;;1.09;100.00;99801.81;1817486;77;20182;-71
2021/03/26 05:22:12;;;;;;;;;;;;;;;1.11;100.00;99799.00;1846848;77;20138;-71
2021/03/26 05:25:05;;;;;;;;;;;;;;;1.06;100.00;99797.72;1843328;77;20488;-70
2021/03/26 05:27:51;;;;;;;;;;;;;;;1.15;100.00;99798.44;1846256;77;21355;-71
2021/03/26 05:30:29;;;;;;;;;;;;;;;1.30;100.00;99799.72;1823197;77;20146;-70
2021/03/26 05:33:31;;;;;;;;;;;;;;;1.36;100.00;99804.24;1817548;77;20115;-71
2021/03/26 05:36:11;;;;;;;;;;;;;;;1.42;100.00;99808.80;1846188;77;20158;-71
2021/03/26 05:38:49;;;;;;;;;;;;;;;1.47;100.00;99810.85;1846221;77;20107;-71
2021/03/26 05:42:01;;;;;;;;;;;;;;;1.42;100.00;99806.63;1846176;77;21361;-71
2021/03/26 05:45:10;;;;;;;;;;;;;;;1.47;100.00;99809.53;1846340;77;20642;-70
2021/03/26 05:48:21;;;;;;;;;;;;;;;1.54;100.00;99813.06;1812832;77;20111;-69
2021/03/26 05:50:59;;;;;;;;;;;;;;;1.56;100.00;99812.89;1846281;77;20502;-70
2021/03/26 05:53:48;;;;;;;;;;;;;;;1.62;100.00;99816.12;1844897;77;20143;-71
2021/03/26 05:56:42;;;;;;;;;;;;;;;1.53;100.00;99815.92;1844658;77;21769;-71
2021/03/26 05:59:30;;;;;;;;;;;;;;;1.53;100.00;99815.41;1844529;77;20170;-69
2021/03/26 06:02:25;;;;;;;;;;;;;;;1.62;100.00;99824.05;1846221;77;20218;-70
2021/03/26 06:05:36;;;;;;;;;;;;;;;1.73;100.00;99826.69;1846234;77;20127;-70
2021/03/26 06:08:44;;;;;;;;;;;;;;;1.72;100.00;99827.20;1846334;77;20490;-71
2021/03/26 06:11:54;;;;;;;;;;;;;;;1.73;100.00;99824.86;1846175;77;21356;-70
2021/03/26 06:14:46;;;;;;;;;;;;;;;1.95;100.00;99830.95;1837306;77;20214;-70
2021/03/26 06:17:51;;;;;;;;;;;;;;;2.20;100.00;99829.22;1842700;77;20198;-70
2021/03/26 06:20:44;;;;;;;;;;;;;;;2.11;100.00;99832.02;1813034;77;20154;-70
2021/03/26 06:24:03;;;;;;;;;;;;;;;2.13;100.00;99834.45;1846215;77;20142;-70
2021/03/26 06:26:56;;;;;;;;;;;;;;;2.29;100.00;99839.48;1845446;77;21463;-70
2021/03/26 06:29:54;;;;;;;;;;;;;;;2.49;100.00;99844.91;1846217;77;20142;-70
2021/03/26 06:32:46;;;;;;;;;;;;;;;2.69;100.00;99842.38;1743318;82;20237;-70
2021/03/26 06:35:29;;;;;;;;;;;;;;;2.85;100.00;99847.07;1743361;82;20536;-69
2021/03/26 06:38:06;;;;;;;;;;;;;;;2.96;100.00;99851.80;1742441;82;20257;-70
2021/03/26 06:41:11;;;;;;;;;;;;;;;3.01;100.00;99846.72;1854987;77;20233;-69
2021/03/26 06:43:59;;;;;;;;;;;;;;;3.16;100.00;99847.42;1822776;78;20479;-70
2021/03/26 06:46:52;;;;;;;;;;;;;;;3.30;100.00;99848.27;1821748;78;21211;-69
2021/03/26 06:49:48;;;;;;;;;;;;;;;3.58;100.00;99843.38;1821612;78;20224;-70
2021/03/26 06:52:46;;;;;;;;;;;;;;;3.85;100.00;99844.23;1822030;78;20315;-70
2021/03/26 06:55:24;;;;;;;;;;;;;;;3.83;100.00;99838.30;1821877;78;20207;-69
2021/03/26 06:58:04;;;;;;;;;;;;;;;3.82;100.00;99845.45;1821559;78;20141;-70
2021/03/26 07:00:47;;;;;;;;;;;;;;;3.97;100.00;99850.58;1821306;78;22665;-70
2021/03/26 07:03:34;;;;;;;;;;;;;;;4.05;100.00;99849.04;1820404;78;20634;-69
2021/03/26 07:06:23;;;;;;;;;;;;;;;4.33;100.00;99853.84;1821478;78;20519;-70
2021/03/26 07:09:22;;;;;;;;;;;;;;;4.61;100.00;99856.27;1770191;80;20251;-69
2021/03/26 07:12:08;;;;;;;;;;;;;;;4.60;100.00;99855.95;1770239;81;20286;-70
2021/03/26 07:14:46;;;;;;;;;;;;;;;4.64;100.00;99857.99;1769576;81;21187;-70
2021/03/26 07:17:30;;;;;;;;;;;;;;;4.84;100.00;99858.47;1770168;81;20258;-70
2021/03/26 07:20:11;;;;;;;;;;;;;;;4.86;100.00;99863.06;1770202;81;20259;-69
2021/03/26 07:23:16;;;;;;;;;;;;;;;4.73;100.00;99857.27;1770505;81;20273;-70
2021/03/26 07:25:55;;;;;;;;;;;;;;;4.93;100.00;99856.70;1770218;81;20290;-69
2021/03/26 07:28:37;;;;;;;;;;;;;;;5.48;100.00;99857.59;1768014;80;21428;-70
2021/03/26 07:31:28;;;;;;;;;;;;;;;5.56;100.00;99857.36;1738134;82;20610;-71
2021/03/26 07:34:24;;;;;;;;;;;;;;;5.78;100.00;99864.51;1738478;82;20610;-70
2021/03/26 07:37:10;;;;;;;;;;;;;;;5.86;98.92;99862.09;1852920;77;20249;-71
2021/03/26 07:39:42;;;;;;;;;;;;;;;5.77;97.33;99866.04;1820508;78;20156;-70
2021/03/26 07:42:21;;;;;;;;;;;;;;;5.83;96.41;99869.69;1820308;78;20247;-69
2021/03/26 07:45:17;;;;;;;;;;;;;;;5.79;97.83;99873.31;1820577;78;20165;-71
2021/03/26 07:48:15;;;;;;;;;;;;;;;5.93;95.81;99871.38;1820326;78;20295;-71
2021/03/26 07:50:57;;;;;;;;;;;;;;;6.01;96.54;99875.95;1820960;78;20252;-71
2021/03/26 07:53:46;;;;;;;;;;;;;;;6.03;93.78;99871.75;1820779;78;20580;-72
2021/03/26 07:56:35;;;;;;;;;;;;;;;6.06;93.07;99868.64;1820609;78;22359;-70
2021/03/26 07:59:09;;;;;;;;;;;;;;;6.21;93.90;99874.47;1820221;78;20141;-71
2021/03/26 08:02:12;;;;;;;;;;;;;;;6.41;91.99;99874.82;1820295;78;20563;-71
2021/03/26 08:05:01;;;;;;;;;;;;;;;6.49;90.39;99881.20;1819737;78;20299;-70
2021/03/26 08:07:49;;;;;;;;;;;;;;;6.82;91.40;99871.56;1820053;78;20283;-69
2021/03/26 08:10:29;;;;;;;;;;;;;;;7.13;89.15;99883.64;1818855;78;21196;-70
2021/03/26 08:13:29;;;;;;;;;;;;;;;7.24;86.35;99878.91;1744204;81;20233;-70
2021/03/26 08:16:20;;;;;;;;;;;;;;;7.50;85.07;99877.77;1744331;82;20292;-70
2021/03/26 08:18:59;;;;;;;;;;;;;;;7.53;81.92;99879.98;1743985;82;20308;-70
2021/03/26 08:21:53;;;;;;;;;;;;;;;7.25;84.11;99881.36;1830947;77;20216;-69
2021/03/26 08:24:31;;;;;;;;;;;;;;;7.36;84.87;99885.13;1787371;79;20222;-70
2021/03/26 08:27:19;;;;;;;;;;;;;;;7.39;84.00;99882.52;1787841;80;21209;-69
2021/03/26 08:30:13;;;;;;;;;;;;;;;7.76;82.94;99882.44;1787523;80;20245;-69
2021/03/26 08:33:20;;;;;;;;;;;;;;;7.69;81.89;99882.53;1787499;80;20214;-69
2021/03/26 08:36:08;;;;;;;;;;;;;;;7.69;81.88;99882.03;1788016;80;20289;-69
2021/03/26 08:38:47;;;;;;;;;;;;;;;8.00;80.74;99888.16;1787650;80;20230;-70
2021/03/26 08:41:17;;;;;;;;;;;;;;;8.09;78.68;99888.66;1788058;80;21205;-70
2021/03/26 08:43:50;;;;;;;;;;;;;;;8.20;79.13;99891.05;1787536;80;20226;-69
2021/03/26 08:46:31;;;;;;;;;;;;;;;8.71;79.53;99893.10;1787944;80;20537;-70
2021/03/26 08:49:25;;;;;;;;;;;;;;;8.93;73.40;99893.85;1787475;80;20329;-69
2021/03/26 08:52:07;;;;;;;;;;;;;;;8.93;70.41;99893.85;1788396;80;20327;-71
2021/03/26 08:54:42;;;;;;;;;;;;;;;9.08;69.86;99895.52;1787968;80;22147;-71
2021/03/26 08:57:44;;;;;;;;;;;;;;;9.04;68.70;99894.37;1788199;80;20238;-69
2021/03/26 09:00:32;;;;;;;;;;;;;;;8.96;70.61;99901.41;1787844;80;20647;-70
2021/03/26 09:03:27;;;;;;;;;;;;;;;8.63;68.72;99900.68;1788306;80;20632;-71
2021/03/26 09:05:59;;;;;;;;;;;;;;;8.90;68.60;99903.17;1788398;80;20592;-71
2021/03/26 09:08:41;;;;;;;;;;;;;;;8.96;67.81;99898.20;1788259;80;20769;-71
2021/03/26 09:11:32;;;;;;;;;;;;;;;9.17;68.67;99898.66;1710729;83;20420;-70
2021/03/26 09:14:29;;;;;;;;;;;;;;;9.50;64.53;99900.65;1852884;77;20182;-70
2021/03/26 09:17:03;;;;;;;;;;;;;;;9.58;65.46;99909.67;1820437;78;20307;-69
2021/03/26 09:19:51;;;;;;;;;;;;;;;9.49;64.27;99912.44;1820588;78;20964;-69
2021/03/26 09:22:38;;;;;;;;;;;;;;;9.39;63.30;99914.91;1820085;78;20296;-70
2021/03/26 09:25:23;;;;;;;;;;;;;;;9.80;63.94;99910.33;1820744;78;20255;-69
2021/03/26 09:28:04;;;;;;;;;;;;;;;10.43;61.56;99911.99;1783955;78;20574;-69
2021/03/26 09:30:40;;;;;;;;;;;;;;;10.59;58.29;99915.75;1820442;78;20192;-70
2021/03/26 09:33:13;;;;;;;;;;;;;;;10.83;56.30;99913.70;1820728;78;21231;-70
2021/03/26 09:35:49;;;;;;;;;;;;;;;10.40;56.65;99912.48;1795765;78;20189;-70
2021/03/26 09:38:39;;;;;;;;;;;;;;;10.75;55.96;99909.26;1794158;78;20159;-71
2021/03/26 09:41:17;;;;;;;;;;;;;;;10.73;57.84;99908.18;1788518;80;20731;-70
2021/03/26 09:43:55;;;;;;;;;;;;;;;10.77;55.23;99915.20;1787797;80;20749;-70
2021/03/26 09:46:31;;;;;;;;;;;;;;;10.75;55.96;99912.75;1787939;80;20289;-68
2021/03/26 09:49:04;;;;;;;;;;;;;;;11.22;54.99;99912.86;1769098;81;20857;-68
2021/03/26 09:52:13;;;;;;;;;;;;;;;11.31;52.65;99914.86;1738420;82;20312;-69
2021/03/26 09:54:52;;;;;;;;;;;;;;;10.81;53.15;99915.81;1816392;79;20280;-70
2021/03/26 09:57:51;;;;;;;;;;;;;;;10.91;52.61;99918.64;1789703;80;20229;-69
2021/03/26 10:00:54;;;;;;;;;;;;;;;11.19;52.30;99912.83;1789331;80;21191;-69
2021/03/26 10:03:37;;;;;;;;;;;;;;;11.01;52.68;99915.28;1789359;80;20153;-69
2021/03/26 10:06:12;;;;;;;;;;;;;;;11.39;51.99;99916.30;1789708;80;20229;-68
2021/03/26 10:09:04;;;;;;;;;;;;;;;10.77;55.05;99902.58;1789297;80;20174;-69
2021/03/26 10:11:50;;;;;;;;;;;;;;;11.59;54.03;99914.41;1788623;80;20227;-70
2021/03/26 10:14:21;;;;;;;;;;;;;;;11.85;51.92;99917.36;1725202;83;21255;-70
2021/03/26 10:17:02;;;;;;;;;;;;;;;11.58;47.94;99918.14;1724798;83;20247;-67
2021/03/26 10:19:44;;;;;;;;;;;;;;;11.84;48.56;99920.59;1624528;88;20650;-70
2021/03/26 10:22:23;;;;;;;;;;;;;;;11.31;48.90;99920.77;1852437;77;20201;-71
2021/03/26 10:24:59;;;;;;;;;;;;;;;11.67;50.20;99917.98;1820042;78;20219;-70
2021/03/26 10:27:34;;;;;;;;;;;;;;;11.64;49.58;99913.66;1820184;78;21048;-69
2021/03/26 10:30:08;;;;;;;;;;;;;;;11.65;48.44;99914.73;1820434;78;20191;-70
2021/03/26 10:32:37;;;;;;;;;;;;;;;11.64;49.50;99915.00;1818250;78;20275;-68
2021/03/26 10:35:22;;;;;;;;;;;;;;;11.29;48.45;99912.14;1787642;80;20292;-70
2021/03/26 10:38:13;;;;;;;;;;;;;;;11.51;49.90;99908.11;1788240;80;20344;-70
2021/03/26 10:40:48;;;;;;;;;;;;;;;11.93;46.65;99911.55;1788840;79;21797;-70
2021/03/26 10:43:26;;;;;;;;;;;;;;;11.80;46.59;99904.67;1789339;78;20292;-69
2021/03/26 10:46:19;;;;;;;;;;;;;;;12.13;47.35;99907.73;1813863;78;20208;-70
2021/03/26 10:49:14;;;;;;;;;;;;;;;12.39;45.83;99915.47;1821450;78;20271;-69
2021/03/26 10:51:54;;;;;;;;;;;;;;;12.12;47.82;99909.32;1821437;78;20191;-69
2021/03/26 10:54:51;;;;;;;;;;;;;;;11.93;46.61;99911.55;1821442;78;21432;-69
2021/03/26 10:57:39;;;;;;;;;;;;;;;11.88;48.54;99910.16;1821455;78;20204;-69
2021/03/26 11:00:12;;;;;;;;;;;;;;;11.77;47.08;99911.38;1821161;78;20267;-70
2021/03/26 11:02:46;;;;;;;;;;;;;;;11.64;47.70;99902.91;1820423;78;20310;-70
2021/03/26 11:05:35;;;;;;;;;;;;;;;11.35;47.55;99903.09;1821347;78;20271;-70
2021/03/26 11:08:25;;;;;;;;;;;;;;;10.97;47.24;99905.28;1821119;78;22120;-69
2021/03/26 11:11:01;;;;;;;;;;;;;;;11.29;49.92;99898.20;1820979;78;20227;-70
2021/03/26 11:13:56;;;;;;;;;;;;;;;12.21;48.90;99905.91;1776777;80;20350;-69
2021/03/26 11:16:38;;;;;;;;;;;;;;;12.58;47.88;99903.78;1777541;80;20385;-68
2021/03/26 11:19:37;;;;;;;;;;;;;;;12.69;46.98;99899.81;1830465;77;20190;-70
2021/03/26 11:22:10;;;;;;;;;;;;;;;13.19;45.47;99901.19;1786496;78;20176;-71
2021/03/26 11:24:45;;;;;;;;;;;;;;;13.06;45.74;99904.63;1821578;78;21816;-70
2021/03/26 11:27:18;;;;;;;;;;;;;;;13.08;45.87;99903.84;1795559;78;20196;-70
2021/03/26 11:29:47;;;;;;;;;;;;;;;12.26;46.87;99900.30;1790361;79;20194;-69
2021/03/26 11:32:22;;;;;;;;;;;;;;;12.63;45.14;99890.34;1789122;79;20192;-68
2021/03/26 11:35:10;;;;;;;;;;;;;;;12.68;45.31;99891.47;1808547;78;20125;-70
2021/03/26 11:38:01;;;;;;;;;;;;;;;12.87;46.03;99888.08;1806688;78;21156;-69
2021/03/26 11:40:33;;;;;;;;;;;;;;;12.73;44.45;99887.45;1807709;78;20243;-69
2021/03/26 11:43:37;;;;;;;;;;;;;;;12.64;45.57;99877.69;1809026;78;20491;-69
2021/03/26 11:46:21;;;;;;;;;;;;;;;13.00;46.01;99887.34;1816220;78;20117;-69
2021/03/26 11:49:05;;;;;;;;;;;;;;;12.80;48.52;99880.77;1812464;78;20629;-69
2021/03/26 11:51:57;;;;;;;;;;;;;;;12.93;47.79;99886.77;1808758;78;21261;-71
2021/03/26 11:54:45;;;;;;;;;;;;;;;12.89;47.85;99881.09;1809077;78;20225;-69
2021/03/26 11:57:38;;;;;;;;;;;;;;;12.47;47.04;99864.41;1808774;78;20267;-70
2021/03/26 12:00:12;;;;;;;;;;;;;;;12.75;47.90;99871.31;1805794;78;20523;-69
2021/03/26 12:02:52;;;;;;;;;;;;;;;12.01;46.31;99874.25;1811689;78;20272;-71
2021/03/26 12:05:33;;;;;;;;;;;;;;;11.29;47.59;99869.16;1817035;79;21377;-71
2021/03/26 12:08:09;;;;;;;;;;;;;;;11.03;48.64;99868.04;1812187;78;20719;-70
2021/03/26 12:10:57;;;;;;;;;;;;;;;11.74;47.07;99866.70;1809634;78;20196;-70
2021/03/26 12:13:35;;;;;;;;;;;;;;;11.71;47.07;99859.13;1814026;78;20231;-69
2021/03/26 12:16:22;;;;;;;;;;;;;;;12.30;47.72;99865.89;1811811;79;20217;-70
2021/03/26 12:18:58;;;;;;;;;;;;;;;11.93;47.92;99863.97;1813810;78;21772;-69
2021/03/26 12:21:32;;;;;;;;;;;;;;;11.79;48.11;99856.80;1812375;78;20133;-70
2021/03/26 12:24:13;;;;;;;;;;;;;;;11.34;49.92;99857.95;1808252;78;20254;-69
2021/03/26 12:26:57;;;;;;;;;;;;;;;11.07;50.13;99855.72;1814109;78;20259;-70
2021/03/26 12:29:56;;;;;;;;;;;;;;;10.91;48.69;99854.19;1819626;79;20236;-69
2021/03/26 12:32:33;;;;;;;;;;;;;;;11.65;47.66;99856.12;1780018;80;21818;-69
2021/03/26 12:35:21;;;;;;;;;;;;;;;12.62;45.71;99851.58;1774375;80;20266;-70
2021/03/26 12:38:01;;;;;;;;;;;;;;;12.77;41.18;99850.86;1781090;80;20334;-69
2021/03/26 12:40:53;;;;;;;;;;;;;;;12.71;43.54;99850.55;1770678;80;20306;-69
2021/03/26 12:43:24;;;;;;;;;;;;;;;12.14;44.55;99850.14;1769135;80;20288;-69
2021/03/26 12:45:58;;;;;;;;;;;;;;;11.62;45.36;99846.69;1778454;80;21383;-69
2021/03/26 12:48:51;;;;;;;;;;;;;;;11.15;45.40;99840.52;1789112;80;20336;-70
2021/03/26 12:51:43;;;;;;;;;;;;;;;11.24;45.74;99847.06;1773817;80;20251;-70
2021/03/26 12:54:40;;;;;;;;;;;;;;;11.93;46.59;99841.61;1852849;77;20205;-70
2021/03/26 12:57:22;;;;;;;;;;;;;;;12.32;43.61;99836.02;1822002;78;20168;-70
2021/03/26 12:59:54;;;;;;;;;;;;;;;12.03;43.54;99839.03;1822243;78;21193;-70
2021/03/26 13:02:30;;;;;;;;;;;;;;;12.71;42.79;99839.77;1821861;78;20176;-70
2021/03/26 13:05:07;;;;;;;;;;;;;;;12.88;41.62;99835.01;1821417;78;20188;-70
2021/03/26 13:07:54;;;;;;;;;;;;;;;11.96;42.67;99833.05;1821928;78;20140;-70
2021/03/26 13:10:33;;;;;;;;;;;;;;;11.73;43.22;99834.95;1821662;78;20232;-69
2021/03/26 13:13:10;;;;;;;;;;;;;;;11.40;42.72;99836.50;1821864;78;21393;-69
2021/03/26 13:15:38;;;;;;;;;;;;;;;11.09;45.99;99838.82;1746954;82;20181;-68
2021/03/26 13:18:10;;;;;;;;;;;;;;;10.85;47.13;99833.71;1747218;82;20237;-70
2021/03/26 13:20:58;;;;;;;;;;;;;;;10.85;46.36;99828.84;1747246;82;20607;-71
2021/03/26 13:23:31;;;;;;;;;;;;;;;10.80;47.02;99832.27;1747139;82;20288;-70
2021/03/26 13:26:07;;;;;;;;;;;;;;;10.68;45.80;99836.43;1717293;83;21211;-69
2021/03/26 13:28:41;;;;;;;;;;;;;;;10.44;47.54;99824.27;1706715;83;20278;-70
2021/03/26 13:31:20;;;;;;;;;;;;;;;10.56;47.92;99827.67;1699351;83;20315;-69
2021/03/26 13:34:01;;;;;;;;;;;;;;;10.86;47.73;99823.77;1688456;85;20283;-70
2021/03/26 13:36:40;;;;;;;;;;;;;;;11.06;48.15;99832.08;1686623;85;20482;-69
2021/03/26 13:39:22;;;;;;;;;;;;;;;11.01;46.11;99828.52;1687916;85;21659;-70
2021/03/26 13:42:21;;;;;;;;;;;;;;;11.26;45.96;99829.35;1687721;85;20305;-70
2021/03/26 13:45:05;;;;;;;;;;;;;;;11.37;45.83;99818.47;1687499;85;20608;-70
2021/03/26 13:47:42;;;;;;;;;;;;;;;11.59;46.71;99824.34;1687033;85;20349;-71
2021/03/26 13:50:21;;;;;;;;;;;;;;;11.24;47.68;99820.73;1852819;77;20185;-70
2021/03/26 13:52:59;;;;;;;;;;;;;;;11.06;49.68;99824.55;1820549;78;20156;-69
2021/03/26 13:55:34;;;;;;;;;;;;;;;11.06;47.66;99821.87;1820955;78;22397;-71
2021/03/26 13:58:24;;;;;;;;;;;;;;;10.96;48.41;99823.09;1822046;78;20152;-70
2021/03/26 14:00:59;;;;;;;;;;;;;;;11.00;48.40;99825.03;1821891;78;20137;-69
2021/03/26 14:03:42;;;;;;;;;;;;;;;10.82;47.89;99822.64;1822164;78;20165;-70
2021/03/26 14:06:33;;;;;;;;;;;;;;;10.92;48.83;99820.88;1822075;78;20117;-69
2021/03/26 14:09:08;;;;;;;;;;;;;;;11.63;47.15;99823.30;1790710;78;21370;-68
2021/03/26 14:11:59;;;;;;;;;;;;;;;12.39;45.77;99827.19;1818609;78;20593;-70